createdAt,value
2024-01-29T00:04:18.338Z,977.15
2024-01-29T00:19:19.011Z,977.10
2024-01-29T00:34:19.644Z,977.00
2024-01-29T00:49:20.287Z,977.10
2024-01-29T01:04:20.835Z,977.12
2024-01-29T01:19:21.418Z,977.11
2024-01-29T01:34:22.189Z,977.11
2024-01-29T01:49:22.507Z,977.08
2024-01-29T02:04:23.432Z,976.97
2024-01-29T02:19:23.517Z,976.98
2024-01-29T02:34:24.152Z,976.98
2024-01-29T02:49:24.901Z,976.91
2024-01-29T03:04:25.467Z,976.78
2024-01-29T03:19:26.019Z,976.76
2024-01-29T03:34:26.539Z,976.77
2024-01-29T03:49:27.353Z,976.69
2024-01-29T04:04:27.910Z,976.73
2024-01-29T04:19:28.433Z,976.71
2024-01-29T04:34:28.935Z,976.64
2024-01-29T04:49:29.331Z,976.62
2024-01-29T05:04:29.874Z,976.68
2024-01-29T05:19:30.451Z,976.75
2024-01-29T05:34:30.744Z,976.84
2024-01-29T05:49:31.509Z,976.92
2024-01-29T06:04:31.970Z,976.94
2024-01-29T06:19:32.418Z,977.00
2024-01-29T06:34:32.800Z,977.07
2024-01-29T06:49:33.421Z,977.16
2024-01-29T07:04:34.063Z,977.30
2024-01-29T07:19:34.979Z,977.43
2024-01-29T07:34:35.372Z,977.60
2024-01-29T08:04:36.254Z,977.66
2024-01-29T08:19:36.662Z,977.60
2024-01-29T08:34:36.984Z,977.67
2024-01-29T08:49:37.721Z,977.69
2024-01-29T09:04:38.477Z,977.92
2024-01-29T09:19:38.923Z,977.85
2024-01-29T09:34:39.742Z,977.86
2024-01-29T09:49:40.492Z,977.88
2024-01-29T10:04:41.222Z,977.89
2024-01-29T10:19:41.880Z,977.84
2024-01-29T10:34:42.601Z,977.79
2024-01-29T10:49:42.989Z,977.72
2024-01-29T11:04:44.124Z,977.70
2024-01-29T11:19:44.218Z,977.62
2024-01-29T11:34:44.715Z,977.45
2024-01-29T11:49:45.590Z,977.24
2024-01-29T12:04:46.270Z,977.17
2024-01-29T12:19:46.732Z,977.02
2024-01-29T12:34:47.354Z,976.88
2024-01-29T12:49:48.114Z,976.82
2024-01-29T13:04:48.309Z,976.66
2024-01-29T13:19:49.078Z,976.56
2024-01-29T13:34:49.681Z,976.41
2024-01-29T13:49:49.980Z,976.41
2024-01-29T14:04:51.885Z,976.44
2024-01-29T14:19:55.494Z,976.26
2024-01-29T14:34:53.600Z,976.39
2024-01-29T14:49:52.880Z,976.37
2024-01-29T15:04:53.893Z,976.37
2024-01-29T15:19:54.484Z,976.43
2024-01-29T15:34:55.181Z,976.48
2024-01-29T15:49:55.511Z,976.51
2024-01-29T16:04:56.086Z,976.63
2024-01-29T16:19:57.350Z,976.83
2024-01-29T16:34:57.708Z,976.83
2024-01-29T16:49:58.172Z,976.90
2024-01-29T17:04:59.037Z,976.89
2024-01-29T17:19:59.427Z,976.89
2024-01-29T17:34:59.851Z,976.73
2024-01-29T17:50:00.178Z,976.93
2024-01-29T18:05:00.513Z,976.94
2024-01-29T18:20:01.374Z,977.14
2024-01-29T18:35:02.092Z,977.04
2024-01-29T18:50:02.702Z,977.09
2024-01-29T19:05:03.289Z,977.12
2024-01-29T19:20:03.701Z,977.04
2024-01-29T19:35:04.152Z,977.14
2024-01-29T19:50:04.695Z,977.20
2024-01-29T20:05:05.055Z,977.18
2024-01-29T20:20:05.501Z,977.20
2024-01-29T20:35:06.060Z,977.04
2024-01-29T20:50:06.775Z,977.03
2024-01-29T21:05:07.242Z,977.02
2024-01-29T21:20:07.741Z,977.05
2024-01-29T21:35:08.161Z,977.21
2024-01-29T21:50:08.597Z,977.25
2024-01-29T22:05:08.998Z,977.26
2024-01-29T22:20:09.636Z,977.29
2024-01-29T22:35:10.534Z,977.25
2024-01-29T22:50:10.984Z,977.23
2024-01-29T23:05:11.415Z,977.32
2024-01-29T23:20:11.868Z,977.37
2024-01-29T23:35:12.347Z,977.39
2024-01-29T23:50:12.838Z,977.44
